Time;durP1;ratioP1;P1;durP2;ratioP2;P2;SDS_P1;SDS_P2;PMS_P1;PMS_P2;Temp;Humidity;BMP_temperature;BMP_pressure;BME280_temperature;BME280_humidity;BME280_pressure;Samples;Min_cycle;Max_cycle;Signal;HPM_P1;HPM_P2
2023/10/17 00:01:18;;;;;;;12.87;8.20;;;2.90;54.00;;;;;;5031586;28;20796;-60
2023/10/17 00:03:46;;;;;;;10.90;6.30;;;2.90;56.60;;;;;;5026610;28;20872;-59
2023/10/17 00:06:16;;;;;;;9.80;6.60;;;2.90;54.20;;;;;;5031313;28;20443;-60
2023/10/17 00:08:44;;;;;;;7.70;5.70;;;3.00;46.30;;;;;;5021545;28;20482;-59
2023/10/17 00:11:15;;;;;;;6.50;4.10;;;3.00;45.50;;;;;;5023294;28;20443;-59
2023/10/17 00:13:52;;;;;;;5.57;4.57;;;3.10;45.20;;;;;;5024566;28;20597;-59
2023/10/17 00:16:21;;;;;;;8.90;5.80;;;3.10;45.20;;;;;;5022134;28;20489;-60
2023/10/17 00:18:47;;;;;;;4.83;4.33;;;3.20;45.20;;;;;;5026810;28;21110;-59
2023/10/17 00:21:21;;;;;;;8.40;4.67;;;3.30;43.00;;;;;;5017169;28;20443;-59
2023/10/17 00:23:50;;;;;;;7.17;4.97;;;3.30;44.40;;;;;;5029056;28;20458;-62
2023/10/17 00:26:18;;;;;;;12.63;4.97;;;3.30;46.70;;;;;;5035066;28;20718;-59
2023/10/17 00:28:45;;;;;;;21.03;5.40;;;3.20;46.20;;;;;;5033705;28;20483;-60
2023/10/17 00:31:12;;;;;;;7.57;4.50;;;3.20;43.80;;;;;;5034759;28;20443;-59
2023/10/17 00:33:41;;;;;;;7.00;5.47;;;3.30;38.60;;;;;;5033520;28;20994;-59
2023/10/17 00:36:14;;;;;;;5.00;3.97;;;3.40;39.40;;;;;;5034019;28;20510;-59
2023/10/17 00:38:43;;;;;;;8.83;4.73;;;3.40;38.00;;;;;;5033494;28;20493;-60
2023/10/17 00:41:16;;;;;;;11.20;5.93;;;3.50;38.90;;;;;;5033310;28;20469;-60
2023/10/17 00:43:43;;;;;;;14.03;9.40;;;3.50;38.90;;;;;;5032500;28;20462;-59
2023/10/17 00:46:10;;;;;;;13.10;9.13;;;3.50;41.70;;;;;;5034822;28;20617;-58
2023/10/17 00:48:37;;;;;;;6.30;5.40;;;3.60;39.50;;;;;;5034794;28;20458;-59
2023/10/17 00:51:08;;;;;;;7.87;5.77;;;3.50;46.80;;;;;;5033528;28;20589;-60
2023/10/17 00:53:38;;;;;;;7.07;4.50;;;3.50;45.80;;;;;;5030605;28;20535;-58
2023/10/17 00:56:06;;;;;;;8.87;4.30;;;3.60;42.90;;;;;;5033220;28;20529;-59
2023/10/17 00:58:34;;;;;;;6.27;5.40;;;3.60;44.80;;;;;;5033035;28;20489;-59
2023/10/17 01:01:09;;;;;;;10.63;5.23;;;3.50;45.20;;;;;;5034229;28;20445;-60
2023/10/17 01:03:42;;;;;;;14.80;5.83;;;3.60;47.40;;;;;;5034291;28;20447;-59
2023/10/17 01:06:23;;;;;;;5.80;4.20;;;3.50;46.70;;;;;;5034331;28;20446;-59
2023/10/17 01:08:50;;;;;;;4.67;4.27;;;3.60;42.20;;;;;;5032610;28;20483;-60
2023/10/17 01:11:21;;;;;;;8.10;5.80;;;3.60;44.30;;;;;;5031353;28;20473;-60
2023/10/17 01:13:51;;;;;;;6.70;4.43;;;3.60;44.60;;;;;;5028173;28;20463;-59
2023/10/17 01:16:18;;;;;;;6.47;5.23;;;3.60;44.10;;;;;;5034105;28;20935;-61
2023/10/17 01:18:46;;;;;;;6.00;4.80;;;3.60;48.10;;;;;;5032789;28;21000;-59
2023/10/17 01:21:14;;;;;;;4.53;4.10;;;3.60;44.10;;;;;;5032703;28;20465;-59
2023/10/17 01:23:41;;;;;;;5.60;4.50;;;3.60;43.70;;;;;;5031209;28;20613;-65
2023/10/17 01:26:14;;;;;;;8.77;4.40;;;3.60;42.90;;;;;;5033238;28;20458;-59
2023/10/17 01:28:45;;;;;;;5.53;4.87;;;3.70;41.00;;;;;;5028143;28;20479;-59
2023/10/17 01:31:14;;;;;;;4.97;4.47;;;3.70;42.30;;;;;;5028819;28;20961;-60
2023/10/17 01:33:42;;;;;;;6.50;5.00;;;3.70;39.40;;;;;;5033297;28;20470;-58
2023/10/17 01:36:10;;;;;;;6.40;5.00;;;3.80;38.50;;;;;;5033948;28;20593;-58
2023/10/17 01:38:38;;;;;;;8.47;4.57;;;3.80;36.90;;;;;;5032734;28;20498;-58
2023/10/17 01:41:05;;;;;;;9.37;4.47;;;3.90;37.10;;;;;;5032172;28;20815;-60
2023/10/17 01:43:37;;;;;;;5.80;5.00;;;3.90;38.40;;;;;;5032092;28;20451;-59
2023/10/17 01:46:06;;;;;;;5.63;5.03;;;3.90;37.10;;;;;;5032947;28;20461;-58
2023/10/17 01:48:33;;;;;;;6.83;5.10;;;4.00;36.80;;;;;;5032173;28;20582;-59
2023/10/17 01:51:12;;;;;;;8.10;6.20;;;4.00;36.70;;;;;;5033520;28;20478;-58
2023/10/17 01:53:39;;;;;;;7.47;6.50;;;4.00;36.60;;;;;;5021881;28;20480;-58
2023/10/17 01:56:13;;;;;;;5.80;5.30;;;4.00;36.60;;;;;;5027078;28;20570;-58
2023/10/17 01:58:42;;;;;;;7.37;4.67;;;4.00;36.00;;;;;;5023903;28;20592;-59
2023/10/17 02:01:12;;;;;;;5.73;4.80;;;4.10;33.70;;;;;;5024030;28;20489;-59
2023/10/17 02:03:39;;;;;;;8.30;4.70;;;4.10;34.50;;;;;;5031632;28;20446;-59
2023/10/17 02:06:13;;;;;;;5.30;4.90;;;4.10;32.10;;;;;;5023671;28;20447;-60
2023/10/17 02:08:41;;;;;;;9.03;5.37;;;4.10;32.10;;;;;;5030842;28;20489;-59
2023/10/17 02:11:12;;;;;;;8.13;4.90;;;4.20;30.20;;;;;;5021338;28;20819;-59
2023/10/17 02:13:41;;;;;;;6.73;4.50;;;4.20;29.80;;;;;;5021552;28;20440;-58
2023/10/17 02:16:09;;;;;;;5.50;4.73;;;4.30;29.80;;;;;;5022570;28;20577;-59
2023/10/17 02:18:38;;;;;;;4.93;4.50;;;4.30;29.70;;;;;;5021279;28;20571;-59
2023/10/17 02:21:05;;;;;;;4.43;4.03;;;4.30;30.00;;;;;;5023353;28;20859;-59
2023/10/17 02:23:39;;;;;;;9.00;5.00;;;4.30;30.70;;;;;;5022569;28;21020;-59
2023/10/17 02:26:10;;;;;;;4.60;4.20;;;4.40;30.30;;;;;;5029541;28;20455;-58
2023/10/17 02:28:44;;;;;;;5.50;4.60;;;4.40;30.50;;;;;;5031379;28;20484;-57
2023/10/17 02:31:16;;;;;;;4.93;4.50;;;4.40;29.80;;;;;;5026745;28;20465;-59
2023/10/17 02:33:43;;;;;;;4.50;4.10;;;4.50;27.50;;;;;;5028560;28;20459;-59
2023/10/17 02:36:13;;;;;;;4.83;4.33;;;4.50;27.30;;;;;;5029659;28;20482;-59
2023/10/17 02:38:40;;;;;;;4.23;3.93;;;4.50;26.60;;;;;;5031802;22;20497;-60
2023/10/17 02:41:12;;;;;;;4.70;4.20;;;4.50;26.40;;;;;;5010200;28;20461;-60
2023/10/17 02:43:40;;;;;;;5.97;4.70;;;4.60;24.60;;;;;;5007517;28;20459;-59
2023/10/17 02:46:07;;;;;;;5.93;5.20;;;4.60;25.50;;;;;;5011164;28;20444;-60
2023/10/17 02:48:42;;;;;;;9.40;4.20;;;4.60;25.30;;;;;;5003570;28;20511;-61
2023/10/17 02:51:31;;;;;;;5.57;4.33;;;4.60;23.80;;;;;;5002854;28;20439;-61
2023/10/17 02:53:58;;;;;;;6.00;3.93;;;4.60;23.60;;;;;;5002031;28;20868;-60
2023/10/17 02:56:25;;;;;;;5.70;4.37;;;4.70;22.90;;;;;;5007282;28;20534;-61
2023/10/17 02:58:59;;;;;;;10.80;4.40;;;4.70;22.60;;;;;;5004769;28;20483;-60
2023/10/17 03:01:26;;;;;;;12.80;4.80;;;4.70;21.70;;;;;;5005214;28;20482;-60
2023/10/17 03:03:54;;;;;;;7.73;5.23;;;4.70;21.40;;;;;;5010467;28;20475;-59
2023/10/17 03:06:21;;;;;;;6.67;5.00;;;4.80;20.60;;;;;;5012292;28;20436;-61
2023/10/17 03:08:51;;;;;;;6.67;4.17;;;4.80;20.60;;;;;;5011934;28;20472;-60
2023/10/17 03:11:26;;;;;;;5.40;4.70;;;4.80;71.90;;;;;;5010432;28;20471;-55
2023/10/17 03:13:53;;;;;;;4.70;4.20;;;4.80;74.20;;;;;;5007475;28;20536;-57
2023/10/17 03:16:25;;;;;;;5.93;4.77;;;4.90;80.40;;;;;;5010705;28;20494;-56
2023/10/17 03:18:52;;;;;;;4.93;4.40;;;4.90;82.80;;;;;;5011783;28;21023;-56
2023/10/17 03:21:29;;;;;;;5.13;4.23;;;4.90;73.90;;;;;;5011859;28;20444;-55
2023/10/17 03:24:00;;;;;;;9.60;4.60;;;4.90;82.10;;;;;;5008987;28;20459;-55
2023/10/17 03:26:29;;;;;;;6.63;4.40;;;5.00;86.50;;;;;;5010789;28;20821;-56
2023/10/17 03:28:55;;;;;;;6.67;4.50;;;5.00;91.20;;;;;;5010537;28;20475;-55
2023/10/17 03:31:21;;;;;;;9.70;5.07;;;5.00;98.40;;;;;;5008431;28;20440;-55
2023/10/17 03:33:50;;;;;;;5.47;4.20;;;5.10;99.90;;;;;;5010088;28;20201;-56
2023/10/17 03:39:18;;;;;;;5.97;4.53;;;5.10;99.90;;;;;;5007169;28;21295;-56
2023/10/17 03:41:44;;;;;;;5.30;4.53;;;5.10;99.90;;;;;;5007676;28;20472;-56
2023/10/17 03:44:15;;;;;;;5.27;4.20;;;5.20;99.90;;;;;;5004634;28;20488;-56
2023/10/17 03:46:46;;;;;;;9.40;4.97;;;5.20;99.90;;;;;;5008990;28;20467;-56
2023/10/17 03:49:17;;;;;;;5.77;4.33;;;5.20;99.90;;;;;;4994745;28;20515;-57
2023/10/17 03:51:46;;;;;;;7.13;4.37;;;5.20;99.90;;;;;;5005688;28;20475;-56
2023/10/17 03:54:18;;;;;;;7.23;4.60;;;5.20;99.90;;;;;;4994555;28;20471;-57
2023/10/17 03:56:45;;;;;;;7.80;5.30;;;5.20;99.90;;;;;;5008881;28;20487;-56
2023/10/17 03:59:21;;;;;;;5.10;4.60;;;5.20;99.90;;;;;;5002204;28;20566;-56
2023/10/17 04:01:48;;;;;;;5.73;4.60;;;5.30;99.90;;;;;;5013827;28;20474;-56
2023/10/17 04:04:18;;;;;;;12.03;4.47;;;5.30;99.90;;;;;;4996829;28;20500;-56
2023/10/17 04:06:48;;;;;;;4.90;4.50;;;5.30;99.90;;;;;;5013281;28;20522;-56
2023/10/17 04:09:17;;;;;;;5.77;4.07;;;5.20;99.90;;;;;;5015402;28;20474;-55
2023/10/17 04:11:49;;;;;;;7.20;5.87;;;5.20;99.90;;;;;;5013103;28;20471;-56
2023/10/17 04:14:17;;;;;;;4.73;4.33;;;5.30;99.90;;;;;;5007545;28;20448;-62
2023/10/17 04:16:46;;;;;;;6.67;4.40;;;5.30;99.90;;;;;;5015260;28;20569;-62
2023/10/17 04:19:17;;;;;;;9.80;5.30;;;5.30;99.90;;;;;;5015209;28;20490;-63
2023/10/17 04:21:49;;;;;;;5.10;4.60;;;5.30;99.90;;;;;;5015063;28;20997;-63
2023/10/17 04:24:26;;;;;;;6.10;4.53;;;5.20;99.90;;;;;;5009423;28;20877;-62
2023/10/17 04:27:05;;;;;;;5.10;4.60;;;5.30;99.90;;;;;;5011560;28;20509;-62
2023/10/17 04:29:32;;;;;;;12.57;4.57;;;5.20;99.90;;;;;;5010704;28;20517;-62
2023/10/17 04:32:01;;;;;;;5.10;4.00;;;5.20;99.90;;;;;;5011616;28;20531;-62
2023/10/17 04:34:28;;;;;;;4.43;4.03;;;5.30;99.90;;;;;;5014573;28;21011;-62
2023/10/17 04:36:56;;;;;;;8.63;6.40;;;5.20;99.90;;;;;;5014814;28;20960;-61
2023/10/17 04:39:35;;;;;;;7.00;5.67;;;5.20;99.90;;;;;;5013995;28;20476;-61
2023/10/17 04:42:05;;;;;;;7.77;6.07;;;5.20;99.90;;;;;;5011701;28;20460;-60
2023/10/17 04:44:36;;;;;;;9.90;6.33;;;5.10;99.90;;;;;;5015039;28;20439;-60
2023/10/17 04:49:50;;;;;;;8.50;6.13;;;5.10;99.90;;;;;;4995975;28;20496;-60
2023/10/17 04:52:19;;;;;;;6.90;5.80;;;5.10;99.90;;;;;;5014575;28;20456;-60
2023/10/17 04:54:47;;;;;;;6.13;5.47;;;5.00;99.90;;;;;;5010013;28;20508;-60
2023/10/17 04:57:15;;;;;;;9.40;5.40;;;5.00;99.90;;;;;;5005729;28;20843;-59
2023/10/17 04:59:51;;;;;;;9.53;6.50;;;4.90;99.90;;;;;;5013271;28;20455;-60
2023/10/17 05:02:38;;;;;;;8.70;7.87;;;5.00;99.90;;;;;;5006644;28;20443;-59
2023/10/17 05:05:39;;;;;;;8.00;7.20;;;5.00;99.90;;;;;;5004798;28;20439;-60
2023/10/17 05:08:31;;;;;;;9.43;8.43;;;5.00;99.90;;;;;;4999788;28;20479;-63
2023/10/17 06:16:58;;;;;;;9.27;5.93;;;5.30;99.90;;;;;;5004134;28;20489;-57
2023/10/17 06:19:25;;;;;;;10.80;5.97;;;5.40;99.90;;;;;;5001466;28;20488;-57
2023/10/17 06:28:20;;;;;;;9.27;6.60;;;5.50;99.90;;;;;;4984969;28;21086;-56
2023/10/17 06:30:34;;;;;;;8.47;6.97;;;5.50;99.90;;;;;;5008066;28;20463;-56
2023/10/17 06:33:16;;;;;;;11.80;7.37;;;5.60;99.90;;;;;;5008394;28;20452;-56
2023/10/17 06:35:44;;;;;;;12.40;7.43;;;5.70;99.90;;;;;;5003304;28;20467;-56
2023/10/17 06:38:15;;;;;;;7.20;6.10;;;5.70;99.90;;;;;;5000173;28;20516;-58
2023/10/17 06:40:45;;;;;;;5.97;5.47;;;5.80;99.90;;;;;;4992776;28;20460;-57
2023/10/17 06:43:15;;;;;;;7.07;6.23;;;5.80;99.90;;;;;;4993119;28;20447;-55
2023/10/17 06:45:54;;;;;;;9.30;6.13;;;5.80;99.90;;;;;;5009616;28;21000;-56
2023/10/17 06:48:31;;;;;;;13.50;8.37;;;5.90;99.90;;;;;;5009412;28;20661;-56
2023/10/17 06:53:48;;;;;;;9.53;7.40;;;6.00;99.90;;;;;;5010078;28;20818;-56
2023/10/17 06:56:16;;;;;;;9.03;7.20;;;6.00;99.90;;;;;;5004092;28;20479;-56
2023/10/17 06:58:43;;;;;;;8.50;6.47;;;6.10;99.90;;;;;;5006114;28;20483;-55
2023/10/17 07:01:24;;;;;;;12.47;6.53;;;6.10;99.90;;;;;;5005994;28;20478;-56
2023/10/17 07:03:54;;;;;;;7.87;6.00;;;6.10;99.90;;;;;;5008665;28;20545;-56
2023/10/17 07:06:24;;;;;;;11.83;6.07;;;6.20;99.90;;;;;;5001380;28;20531;-55
2023/10/17 07:08:53;;;;;;;9.67;6.17;;;6.20;99.90;;;;;;5007521;28;20487;-57
2023/10/17 07:11:26;;;;;;;25.77;6.57;;;6.30;99.90;;;;;;5006080;28;20546;-56
2023/10/17 07:14:23;;;;;;;16.03;6.30;;;6.40;99.90;;;;;;5007430;28;20565;-56
2023/10/17 07:16:57;;;;;;;11.80;6.00;;;6.50;99.90;;;;;;5001645;28;20975;-57
2023/10/17 07:22:12;;;;;;;21.80;7.80;;;6.80;99.90;;;;;;5005676;28;20459;-56
2023/10/17 07:24:42;;;;;;;10.33;6.67;;;7.00;99.90;;;;;;5005263;28;20555;-56
2023/10/17 07:27:18;;;;;;;12.73;5.50;;;7.10;99.90;;;;;;5000013;28;20472;-55
2023/10/17 07:29:57;;;;;;;8.37;5.67;;;7.20;99.90;;;;;;4995575;28;20613;-54
2023/10/17 07:32:25;;;;;;;5.60;4.20;;;7.30;99.90;;;;;;4998633;28;20486;-55
2023/10/17 07:34:58;;;;;;;9.07;4.37;;;7.40;99.90;;;;;;4997464;28;20460;-56
2023/10/17 07:37:25;;;;;;;5.77;4.87;;;7.40;99.90;;;;;;4992939;28;20782;-55
2023/10/17 07:40:16;;;;;;;6.40;4.63;;;7.40;28.90;;;;;;5002711;28;20456;-55
2023/10/17 07:42:45;;;;;;;10.13;4.17;;;7.50;28.40;;;;;;4999410;28;20896;-56
2023/10/17 07:45:15;;;;;;;10.77;4.53;;;7.50;32.70;;;;;;5004143;28;20457;-56
2023/10/17 07:47:42;;;;;;;5.83;4.30;;;7.60;36.60;;;;;;5006361;28;20472;-56
2023/10/17 07:50:13;;;;;;;6.07;3.90;;;7.70;35.70;;;;;;5006776;28;21131;-55
2023/10/17 07:52:43;;;;;;;6.37;4.00;;;7.70;36.00;;;;;;5008529;28;20444;-56
2023/10/17 07:55:19;;;;;;;5.03;3.53;;;7.80;40.90;;;;;;5003028;28;20451;-55
2023/10/17 07:57:51;;;;;;;7.03;4.47;;;7.80;41.80;;;;;;5003179;28;20564;-55
2023/10/17 08:00:26;;;;;;;8.73;4.77;;;7.90;44.90;;;;;;5001196;28;20456;-56
2023/10/17 08:02:54;;;;;;;6.10;4.00;;;7.90;45.50;;;;;;5003855;28;20486;-55
2023/10/17 08:05:25;;;;;;;4.07;3.67;;;8.00;50.30;;;;;;5001983;28;20474;-57
2023/10/17 08:08:03;;;;;;;6.60;3.77;;;8.10;54.50;;;;;;5005166;28;20475;-56
2023/10/17 08:10:33;;;;;;;7.23;5.17;;;8.00;57.20;;;;;;5002402;28;20558;-55
2023/10/17 08:13:00;;;;;;;7.67;4.20;;;8.10;58.80;;;;;;5000556;28;20514;-61
2023/10/17 08:15:32;;;;;;;7.33;3.97;;;8.20;59.00;;;;;;5003407;28;21075;-55
2023/10/17 08:17:59;;;;;;;5.37;3.93;;;8.30;58.90;;;;;;5003197;28;20491;-55
2023/10/17 08:23:11;;;;;;;8.47;3.67;;;8.40;65.20;;;;;;4999090;28;20440;-55
2023/10/17 08:25:52;;;;;;;8.13;5.00;;;8.50;68.40;;;;;;4997177;28;20902;-55
2023/10/17 08:28:33;;;;;;;8.00;4.60;;;8.50;74.10;;;;;;4989935;28;20843;-55
2023/10/17 08:31:17;;;;;;;6.27;3.60;;;8.60;80.20;;;;;;4990936;28;20455;-56
2023/10/17 08:33:47;;;;;;;4.10;3.30;;;8.60;77.50;;;;;;4999367;28;20804;-55
2023/10/17 08:36:14;;;;;;;6.20;3.93;;;8.60;92.50;;;;;;5011099;28;20448;-55
2023/10/17 08:38:41;;;;;;;3.93;3.63;;;8.70;94.00;;;;;;5011690;28;20483;-60
2023/10/17 08:41:07;;;;;;;7.07;4.40;;;8.80;96.50;;;;;;5001590;28;20515;-61
2023/10/17 08:43:36;;;;;;;6.30;4.07;;;9.00;98.60;;;;;;5001981;28;20452;-61
2023/10/17 08:46:07;;;;;;;7.63;3.67;;;9.00;99.90;;;;;;4993444;28;20453;-62
2023/10/17 08:48:34;;;;;;;9.03;3.90;;;9.10;99.90;;;;;;5004690;28;20672;-61
2023/10/17 08:51:06;;;;;;;8.57;3.60;;;9.20;99.90;;;;;;5001220;28;20469;-62
2023/10/17 08:53:35;;;;;;;6.27;3.80;;;9.30;99.90;;;;;;5007940;28;20850;-62
2023/10/17 08:56:07;;;;;;;7.13;4.10;;;9.30;99.90;;;;;;5003574;28;20480;-61
2023/10/17 08:58:36;;;;;;;11.67;4.07;;;9.40;99.90;;;;;;4995040;28;20574;-62
2023/10/17 09:01:10;;;;;;;4.20;3.60;;;9.40;99.90;;;;;;5013771;28;20561;-62
2023/10/17 09:03:41;;;;;;;13.90;3.23;;;9.50;99.90;;;;;;4997249;28;20475;-61
2023/10/17 09:06:28;;;;;;;6.37;3.40;;;9.50;99.90;;;;;;5013814;28;20453;-63
2023/10/17 09:09:00;;;;;;;6.20;3.00;;;9.70;99.90;;;;;;5012921;28;20550;-63
2023/10/17 09:11:30;;;;;;;5.83;2.47;;;9.90;99.90;;;;;;5001342;28;20469;-61
2023/10/17 09:14:16;;;;;;;6.20;3.07;;;9.70;99.90;;;;;;4994857;28;20495;-62
2023/10/17 09:16:50;;;;;;;6.23;3.13;;;10.10;99.90;;;;;;4995450;28;20448;-61
2023/10/17 09:19:20;;;;;;;5.50;2.80;;;10.20;99.90;;;;;;5002121;28;20492;-62
2023/10/17 09:21:49;;;;;;;7.57;3.00;;;10.20;99.90;;;;;;5009078;28;20486;-62
2023/10/17 09:24:35;;;;;;;4.97;2.00;;;10.20;99.90;;;;;;5007591;28;20468;-62
2023/10/17 09:27:09;;;;;;;7.40;2.77;;;10.10;99.90;;;;;;5006033;28;20606;-62
2023/10/17 09:29:43;;;;;;;3.80;3.20;;;10.30;99.90;;;;;;5009727;28;20941;-62
2023/10/17 09:32:10;;;;;;;3.83;2.53;;;10.40;99.90;;;;;;5006194;28;20463;-62
2023/10/17 09:34:40;;;;;;;2.83;2.10;;;11.00;75.40;;;;;;5006624;28;20521;-63
2023/10/17 09:37:12;;;;;;;5.23;2.30;;;11.10;64.10;;;;;;5001839;28;20947;-61
2023/10/17 09:39:47;;;;;;;6.90;1.97;;;11.40;59.30;;;;;;4993021;28;20485;-61
2023/10/17 09:42:14;;;;;;;7.27;2.13;;;12.00;66.60;;;;;;4999320;28;20464;-62
2023/10/17 09:44:42;;;;;;;2.50;1.50;;;12.20;99.90;;;;;;5008258;28;20471;-61
2023/10/17 09:47:10;;;;;;;6.80;2.10;;;12.20;99.90;;;;;;4998791;28;20475;-62
2023/10/17 09:49:41;;;;;;;4.87;1.63;;;12.80;99.90;;;;;;5002688;28;21052;-63
2023/10/17 09:52:09;;;;;;;5.33;1.50;;;12.40;99.90;;;;;;5000310;28;20469;-61
2023/10/17 09:54:40;;;;;;;3.33;1.37;;;13.30;99.90;;;;;;5008686;28;20467;-61
2023/10/17 09:57:14;;;;;;;4.70;1.53;;;13.80;99.90;;;;;;5010972;28;20472;-62
2023/10/17 09:59:44;;;;;;;3.47;2.90;;;13.00;99.90;;;;;;5012754;28;20985;-61
2023/10/17 10:02:12;;;;;;;12.30;1.60;;;12.80;99.90;;;;;;5004571;28;20494;-61
2023/10/17 10:04:39;;;;;;;3.57;2.20;;;12.70;99.90;;;;;;5005552;28;21007;-62
2023/10/17 10:07:22;;;;;;;3.90;1.47;;;13.00;99.90;;;;;;5004222;28;20478;-60
2023/10/17 10:09:49;;;;;;;2.90;0.90;;;13.20;99.90;;;;;;4992131;28;20890;-62
2023/10/17 10:12:17;;;;;;;3.10;0.90;;;12.80;99.90;;;;;;5003332;28;20464;-61
2023/10/17 10:14:43;;;;;;;4.47;1.40;;;12.30;99.90;;;;;;5002577;28;21043;-62
2023/10/17 10:17:13;;;;;;;1.50;0.93;;;11.90;99.90;;;;;;5006392;28;20489;-61
2023/10/17 10:19:59;;;;;;;12.43;1.70;;;11.70;99.90;;;;;;5008928;28;20484;-63
2023/10/17 10:22:52;;;;;;;13.23;2.10;;;11.40;99.90;;;;;;5004375;28;20508;-56
2023/10/17 10:25:20;;;;;;;6.20;1.70;;;11.10;99.90;;;;;;5001837;28;20457;-56
2023/10/17 10:27:50;;;;;;;12.53;1.50;;;11.00;99.90;;;;;;5001367;28;20575;-56
2023/10/17 10:30:34;;;;;;;5.27;1.50;;;10.90;99.90;;;;;;5005674;28;20452;-55
2023/10/17 10:33:01;;;;;;;3.80;1.40;;;10.80;99.90;;;;;;5003540;28;20554;-56
2023/10/17 10:35:33;;;;;;;4.20;1.20;;;10.70;99.90;;;;;;5007490;28;20467;-57
2023/10/17 10:37:59;;;;;;;1.57;1.07;;;10.70;99.90;;;;;;4996374;28;20497;-54
2023/10/17 10:40:30;;;;;;;5.20;1.40;;;10.70;99.90;;;;;;5001967;28;20461;-57
2023/10/17 10:43:00;;;;;;;2.80;1.37;;;10.70;99.90;;;;;;5004815;28;20467;-55
2023/10/17 10:45:35;;;;;;;5.20;1.20;;;10.70;99.90;;;;;;5007728;28;20951;-56
2023/10/17 10:48:04;;;;;;;4.63;2.17;;;10.70;99.90;;;;;;5012197;28;20489;-61
2023/10/17 10:50:33;;;;;;;6.00;1.03;;;10.70;99.90;;;;;;5007129;28;20448;-56
2023/10/17 10:53:01;;;;;;;2.77;1.63;;;10.80;99.90;;;;;;5007657;28;20554;-56
2023/10/17 10:55:30;;;;;;;4.17;1.03;;;10.80;99.90;;;;;;5000267;28;20467;-55
2023/10/17 10:58:00;;;;;;;1.83;1.10;;;10.90;99.90;;;;;;4998309;28;20521;-57
2023/10/17 11:00:27;;;;;;;1.23;0.93;;;10.90;99.90;;;;;;4992900;28;20467;-57
2023/10/17 11:02:54;;;;;;;1.23;0.80;;;11.00;99.90;;;;;;4996895;28;20494;-56
2023/10/17 11:05:21;;;;;;;3.87;0.97;;;11.00;99.90;;;;;;4999114;28;20445;-56
2023/10/17 11:07:47;;;;;;;0.80;0.70;;;11.10;99.90;;;;;;5001488;28;20894;-57
2023/10/17 11:10:14;;;;;;;3.13;1.00;;;11.10;99.90;;;;;;5002426;28;20475;-57
2023/10/17 11:12:42;;;;;;;2.80;0.80;;;11.20;99.90;;;;;;5000412;28;20447;-55
2023/10/17 11:15:14;;;;;;;1.30;0.80;;;11.20;99.90;;;;;;5008206;28;20448;-57
2023/10/17 11:17:42;;;;;;;1.37;0.70;;;11.20;99.90;;;;;;4997172;28;21011;-56
2023/10/17 11:20:14;;;;;;;2.40;0.87;;;11.10;99.90;;;;;;5007197;28;20479;-56
2023/10/17 11:22:42;;;;;;;1.37;0.70;;;11.10;99.90;;;;;;5002591;28;20486;-56
2023/10/17 11:25:15;;;;;;;2.30;1.20;;;11.20;99.90;;;;;;5008082;28;20501;-56
2023/10/17 11:27:49;;;;;;;1.57;1.10;;;11.20;99.90;;;;;;5009521;28;20471;-57
2023/10/17 11:30:20;;;;;;;2.57;1.13;;;11.20;99.90;;;;;;4997389;28;20468;-56
2023/10/17 11:32:47;;;;;;;2.00;1.30;;;11.20;99.90;;;;;;4998169;28;21014;-55
2023/10/17 11:35:29;;;;;;;2.70;1.03;;;11.20;99.90;;;;;;5010873;28;20447;-55
2023/10/17 11:37:56;;;;;;;3.10;0.90;;;11.20;99.90;;;;;;5002511;28;21826;-55
2023/10/17 11:40:30;;;;;;;2.10;1.00;;;11.10;99.90;;;;;;5006572;28;20467;-56
2023/10/17 11:42:59;;;;;;;1.47;1.23;;;11.10;99.90;;;;;;5003196;28;20469;-55
2023/10/17 11:45:33;;;;;;;1.53;1.00;;;11.10;99.90;;;;;;5000062;28;20447;-55
2023/10/17 11:48:06;;;;;;;1.27;0.80;;;11.10;99.90;;;;;;5004203;28;20486;-57
2023/10/17 11:50:34;;;;;;;3.17;1.17;;;11.10;99.90;;;;;;5008834;28;20464;-55
2023/10/17 11:53:10;;;;;;;4.20;1.13;;;11.10;99.90;;;;;;5003796;28;20459;-56
2023/10/17 11:55:46;;;;;;;5.10;1.13;;;11.00;99.90;;;;;;4995788;28;20576;-55
2023/10/17 11:58:24;;;;;;;2.30;1.53;;;11.00;99.90;;;;;;5001873;28;20494;-55
2023/10/17 12:00:52;;;;;;;6.00;1.10;;;11.00;99.90;;;;;;5000045;28;20510;-57
2023/10/17 12:03:20;;;;;;;3.57;1.30;;;11.00;99.90;;;;;;5001659;28;20459;-56
2023/10/17 12:05:47;;;;;;;4.10;0.90;;;11.00;99.90;;;;;;4997344;28;20464;-55
2023/10/17 12:08:21;;;;;;;2.87;1.40;;;10.90;99.90;;;;;;5000099;28;20475;-55
2023/10/17 12:10:49;;;;;;;2.60;1.27;;;10.90;99.90;;;;;;5000078;28;20469;-57
2023/10/17 12:13:17;;;;;;;5.90;1.20;;;10.90;99.90;;;;;;5003999;28;20946;-55
2023/10/17 12:15:44;;;;;;;3.20;1.17;;;10.90;99.90;;;;;;4998419;28;20533;-55
2023/10/17 12:18:12;;;;;;;13.63;1.60;;;10.90;99.90;;;;;;5005741;28;20475;-56
2023/10/17 12:20:40;;;;;;;1.43;1.00;;;10.80;99.90;;;;;;4999096;28;20445;-56
2023/10/17 12:23:09;;;;;;;4.07;1.30;;;10.80;99.90;;;;;;5008897;28;20467;-55
2023/10/17 12:25:36;;;;;;;5.80;1.50;;;10.80;99.90;;;;;;5003656;28;20524;-56
2023/10/17 12:28:06;;;;;;;2.03;1.07;;;10.80;99.90;;;;;;5002068;28;20968;-55
2023/10/17 12:30:36;;;;;;;5.20;1.23;;;10.80;1.40;;;;;;4997974;28;20530;-57
2023/10/17 12:33:04;;;;;;;7.47;1.43;;;10.80;99.90;;;;;;5007308;28;20558;-54
2023/10/17 12:35:33;;;;;;;4.30;1.40;;;10.70;99.90;;;;;;4999818;28;20452;-57
2023/10/17 12:38:06;;;;;;;3.33;2.20;;;10.70;99.90;;;;;;5007899;28;20498;-57
2023/10/17 12:40:33;;;;;;;4.50;2.77;;;10.70;99.90;;;;;;5001044;28;20492;-55
2023/10/17 12:43:01;;;;;;;10.47;3.97;;;10.70;99.90;;;;;;4997771;28;20451;-56
2023/10/17 12:45:30;;;;;;;7.20;2.33;;;10.70;99.90;;;;;;4997639;28;20492;-56
2023/10/17 12:47:56;;;;;;;4.57;1.30;;;10.70;99.90;;;;;;5005315;28;20554;-56
2023/10/17 12:50:23;;;;;;;2.33;1.43;;;10.70;99.90;;;;;;5002867;28;20447;-55
2023/10/17 12:52:53;;;;;;;4.43;1.60;;;10.70;99.90;;;;;;5006246;28;20463;-55
2023/10/17 12:55:20;;;;;;;3.10;1.30;;;10.70;99.90;;;;;;5002994;28;20554;-55
2023/10/17 12:57:46;;;;;;;1.63;1.00;;;10.80;99.90;;;;;;4999583;28;20496;-55
2023/10/17 13:00:14;;;;;;;2.00;0.97;;;10.90;99.90;;;;;;5002359;28;20582;-57
2023/10/17 13:02:42;;;;;;;3.50;1.13;;;11.00;99.90;;;;;;4997184;28;20467;-56
2023/10/17 13:05:09;;;;;;;1.23;0.87;;;11.10;99.90;;;;;;5001602;28;20460;-62
2023/10/17 13:07:36;;;;;;;3.37;1.33;;;11.20;99.90;;;;;;5004794;28;20476;-62
2023/10/17 13:10:07;;;;;;;1.30;1.10;;;11.20;99.90;;;;;;5004396;28;20459;-61
2023/10/17 13:12:34;;;;;;;1.30;1.00;;;11.20;99.90;;;;;;4997795;28;20463;-62
2023/10/17 13:15:00;;;;;;;2.33;1.20;;;11.20;99.90;;;;;;5002461;28;20922;-62
2023/10/17 13:17:28;;;;;;;1.87;1.03;;;11.10;99.90;;;;;;5008702;28;20463;-61
2023/10/17 13:19:57;;;;;;;2.40;1.50;;;11.10;99.90;;;;;;5002113;28;20488;-61
2023/10/17 13:22:24;;;;;;;1.63;1.40;;;11.10;99.90;;;;;;4997014;28;20519;-62
2023/10/17 13:24:50;;;;;;;4.27;1.40;;;11.00;99.90;;;;;;5004116;28;20488;-62
2023/10/17 13:27:18;;;;;;;3.43;1.30;;;11.00;99.90;;;;;;5001198;28;20501;-60
2023/10/17 13:29:46;;;;;;;3.33;1.30;;;11.00;99.90;;;;;;5005794;28;20865;-60
2023/10/17 13:32:12;;;;;;;5.23;1.40;;;10.90;99.90;;;;;;5001036;28;20472;-58
2023/10/17 13:34:39;;;;;;;4.03;1.37;;;11.00;99.90;;;;;;5001823;28;20533;-58
2023/10/17 13:37:07;;;;;;;3.47;1.67;;;11.00;99.90;;;;;;4998942;28;20444;-58
2023/10/17 13:39:34;;;;;;;2.13;1.13;;;11.00;99.90;;;;;;5011121;28;20488;-59
2023/10/17 13:42:03;;;;;;;7.90;1.40;;;11.00;99.90;;;;;;5007654;28;21147;-60
2023/10/17 13:44:31;;;;;;;3.83;1.50;;;11.00;99.90;;;;;;5009172;28;20846;-58
2023/10/17 13:46:57;;;;;;;3.37;1.70;;;10.90;99.90;;;;;;5000918;28;20988;-57
2023/10/17 13:49:26;;;;;;;2.97;1.80;;;11.00;99.90;;;;;;5005623;28;20480;-57
2023/10/17 13:51:54;;;;;;;4.80;1.80;;;11.00;99.90;;;;;;5008059;28;20463;-56
2023/10/17 13:54:20;;;;;;;1.97;1.40;;;11.00;99.90;;;;;;5009688;28;20457;-56
2023/10/17 13:56:47;;;;;;;1.93;1.23;;;11.00;99.90;;;;;;5006080;28;20529;-55
2023/10/17 13:59:14;;;;;;;2.90;1.20;;;11.00;99.90;;;;;;5001801;28;20501;-56
2023/10/17 14:01:42;;;;;;;2.33;1.20;;;10.90;99.90;;;;;;5000920;28;20445;-56
2023/10/17 14:04:10;;;;;;;5.50;1.23;;;10.90;99.90;;;;;;4995412;28;20546;-56
2023/10/17 14:06:39;;;;;;;6.03;1.43;;;10.90;1.40;;;;;;5000785;28;20845;-55
2023/10/17 14:09:14;;;;;;;8.97;2.07;;;10.80;99.90;;;;;;4998112;28;20842;-55
2023/10/17 14:11:42;;;;;;;6.47;1.20;;;10.80;99.90;;;;;;5006448;28;20999;-56
2023/10/17 14:14:10;;;;;;;2.37;1.60;;;10.80;99.90;;;;;;4997858;28;20536;-56
2023/10/17 14:16:40;;;;;;;5.30;1.40;;;10.80;99.90;;;;;;5001919;28;20448;-58
2023/10/17 14:19:15;;;;;;;3.23;1.13;;;10.80;99.90;;;;;;4999567;28;20494;-58
2023/10/17 14:21:44;;;;;;;2.40;1.00;;;10.70;99.90;;;;;;4996389;28;20463;-56
2023/10/17 14:24:11;;;;;;;2.27;1.20;;;10.80;99.90;;;;;;5000208;28;20461;-56
2023/10/17 14:26:39;;;;;;;1.57;1.30;;;10.70;99.90;;;;;;4999504;28;20451;-55
2023/10/17 14:29:05;;;;;;;2.40;1.30;;;10.70;99.90;;;;;;5001787;28;20465;-55
2023/10/17 14:31:32;;;;;;;4.40;1.23;;;10.80;99.90;;;;;;4997820;28;20446;-56
2023/10/17 14:34:00;;;;;;;4.43;1.63;;;10.80;99.90;;;;;;4999244;28;20911;-55
2023/10/17 14:36:28;;;;;;;16.40;2.33;;;10.80;99.90;;;;;;5001490;28;20534;-56